sensor_id;sensor_type;location;lat;lon;timestamp;P1;durP1;ratioP1;P2;durP2;ratioP2
32407;SDS011;18869;55.970;37.502;2022-09-24T00:00:54;7.03;;;4.07;;
32407;SDS011;18869;55.970;37.502;2022-09-24T00:03:23;4.43;;;3.83;;
32407;SDS011;18869;55.970;37.502;2022-09-24T00:05:52;4.30;;;3.90;;
32407;SDS011;18869;55.970;37.502;2022-09-24T00:08:21;4.23;;;3.13;;
32407;SDS011;18869;55.970;37.502;2022-09-24T00:10:49;3.93;;;3.63;;
32407;SDS011;18869;55.970;37.502;2022-09-24T00:13:16;3.67;;;3.37;;
32407;SDS011;18869;55.970;37.502;2022-09-24T00:15:45;9.63;;;4.20;;
32407;SDS011;18869;55.970;37.502;2022-09-24T00:18:14;4.27;;;3.87;;
32407;SDS011;18869;55.970;37.502;2022-09-24T00:20:42;3.73;;;3.43;;
32407;SDS011;18869;55.970;37.502;2022-09-24T00:23:10;4.07;;;3.70;;
32407;SDS011;18869;55.970;37.502;2022-09-24T00:25:43;3.37;;;3.07;;
32407;SDS011;18869;55.970;37.502;2022-09-24T00:28:28;3.63;;;3.33;;
32407;SDS011;18869;55.970;37.502;2022-09-24T00:30:57;5.27;;;3.77;;
32407;SDS011;18869;55.970;37.502;2022-09-24T00:33:26;3.23;;;2.93;;
32407;SDS011;18869;55.970;37.502;2022-09-24T00:35:57;4.37;;;3.90;;
32407;SDS011;18869;55.970;37.502;2022-09-24T00:38:27;3.60;;;3.30;;
32407;SDS011;18869;55.970;37.502;2022-09-24T00:40:56;3.57;;;3.30;;
32407;SDS011;18869;55.970;37.502;2022-09-24T00:43:25;2.80;;;2.60;;
32407;SDS011;18869;55.970;37.502;2022-09-24T00:45:54;2.90;;;2.70;;
32407;SDS011;18869;55.970;37.502;2022-09-24T00:48:24;2.87;;;2.57;;
32407;SDS011;18869;55.970;37.502;2022-09-24T00:50:51;2.80;;;2.63;;
32407;SDS011;18869;55.970;37.502;2022-09-24T00:53:20;3.17;;;2.67;;
32407;SDS011;18869;55.970;37.502;2022-09-24T00:55:50;4.60;;;2.80;;
32407;SDS011;18869;55.970;37.502;2022-09-24T00:58:21;3.00;;;2.80;;
32407;SDS011;18869;55.970;37.502;2022-09-24T01:00:49;3.57;;;2.93;;
32407;SDS011;18869;55.970;37.502;2022-09-24T01:03:19;4.07;;;2.67;;
32407;SDS011;18869;55.970;37.502;2022-09-24T01:05:49;2.33;;;2.23;;
32407;SDS011;18869;55.970;37.502;2022-09-24T01:08:17;2.97;;;2.40;;
32407;SDS011;18869;55.970;37.502;2022-09-24T01:10:54;3.20;;;2.40;;
32407;SDS011;18869;55.970;37.502;2022-09-24T01:13:35;3.67;;;2.80;;
32407;SDS011;18869;55.970;37.502;2022-09-24T01:16:17;2.43;;;2.33;;
32407;SDS011;18869;55.970;37.502;2022-09-24T01:18:53;3.10;;;2.50;;
32407;SDS011;18869;55.970;37.502;2022-09-24T01:21:26;2.60;;;2.43;;
32407;SDS011;18869;55.970;37.502;2022-09-24T01:24:22;2.17;;;2.07;;
32407;SDS011;18869;55.970;37.502;2022-09-24T01:27:00;2.60;;;2.40;;
32407;SDS011;18869;55.970;37.502;2022-09-24T01:29:38;2.23;;;2.10;;
32407;SDS011;18869;55.970;37.502;2022-09-24T01:32:14;2.23;;;2.10;;
32407;SDS011;18869;55.970;37.502;2022-09-24T01:34:46;2.90;;;2.70;;
32407;SDS011;18869;55.970;37.502;2022-09-24T01:37:16;1.77;;;1.67;;
32407;SDS011;18869;55.970;37.502;2022-09-24T01:39:45;2.07;;;1.97;;
32407;SDS011;18869;55.970;37.502;2022-09-24T01:42:13;2.40;;;2.20;;
32407;SDS011;18869;55.970;37.502;2022-09-24T01:44:42;1.80;;;1.70;;
32407;SDS011;18869;55.970;37.502;2022-09-24T01:47:11;1.80;;;1.70;;
32407;SDS011;18869;55.970;37.502;2022-09-24T01:49:45;2.17;;;2.07;;
32407;SDS011;18869;55.970;37.502;2022-09-24T01:52:14;2.27;;;2.07;;
32407;SDS011;18869;55.970;37.502;2022-09-24T01:54:43;2.00;;;1.90;;
32407;SDS011;18869;55.970;37.502;2022-09-24T01:57:17;1.83;;;1.73;;
32407;SDS011;18869;55.970;37.502;2022-09-24T01:59:51;1.93;;;1.83;;
32407;SDS011;18869;55.970;37.502;2022-09-24T02:02:22;1.60;;;1.57;;
32407;SDS011;18869;55.970;37.502;2022-09-24T02:04:56;1.80;;;1.70;;
32407;SDS011;18869;55.970;37.502;2022-09-24T02:07:25;2.23;;;1.83;;
32407;SDS011;18869;55.970;37.502;2022-09-24T02:09:56;1.90;;;1.80;;
32407;SDS011;18869;55.970;37.502;2022-09-24T02:12:26;2.13;;;1.80;;
32407;SDS011;18869;55.970;37.502;2022-09-24T02:14:56;1.87;;;1.77;;
32407;SDS011;18869;55.970;37.502;2022-09-24T02:17:29;1.80;;;1.73;;
32407;SDS011;18869;55.970;37.502;2022-09-24T02:19:59;1.80;;;1.70;;
32407;SDS011;18869;55.970;37.502;2022-09-24T02:22:28;1.50;;;1.40;;
32407;SDS011;18869;55.970;37.502;2022-09-24T02:24:57;1.90;;;1.80;;
32407;SDS011;18869;55.970;37.502;2022-09-24T02:27:26;1.80;;;1.70;;
32407;SDS011;18869;55.970;37.502;2022-09-24T02:29:56;1.60;;;1.50;;
32407;SDS011;18869;55.970;37.502;2022-09-24T02:32:24;1.60;;;1.50;;
32407;SDS011;18869;55.970;37.502;2022-09-24T02:34:54;1.30;;;1.30;;
32407;SDS011;18869;55.970;37.502;2022-09-24T02:37:23;1.93;;;1.83;;
32407;SDS011;18869;55.970;37.502;2022-09-24T02:39:51;1.63;;;1.63;;
32407;SDS011;18869;55.970;37.502;2022-09-24T02:42:18;1.73;;;1.63;;
32407;SDS011;18869;55.970;37.502;2022-09-24T02:44:46;1.80;;;1.40;;
32407;SDS011;18869;55.970;37.502;2022-09-24T02:47:15;1.30;;;1.20;;
32407;SDS011;18869;55.970;37.502;2022-09-24T02:49:45;1.30;;;1.30;;
32407;SDS011;18869;55.970;37.502;2022-09-24T02:52:12;1.63;;;1.63;;
32407;SDS011;18869;55.970;37.502;2022-09-24T02:54:40;1.43;;;1.40;;
32407;SDS011;18869;55.970;37.502;2022-09-24T02:57:08;1.50;;;1.50;;
32407;SDS011;18869;55.970;37.502;2022-09-24T02:59:36;1.50;;;1.40;;
32407;SDS011;18869;55.970;37.502;2022-09-24T03:02:04;1.57;;;1.50;;
32407;SDS011;18869;55.970;37.502;2022-09-24T03:04:33;1.77;;;1.50;;
32407;SDS011;18869;55.970;37.502;2022-09-24T03:07:01;1.37;;;1.37;;
32407;SDS011;18869;55.970;37.502;2022-09-24T03:09:29;1.57;;;1.47;;
32407;SDS011;18869;55.970;37.502;2022-09-24T03:11:56;1.77;;;1.77;;
32407;SDS011;18869;55.970;37.502;2022-09-24T03:14:26;1.13;;;1.13;;
32407;SDS011;18869;55.970;37.502;2022-09-24T03:16:53;2.93;;;1.47;;
32407;SDS011;18869;55.970;37.502;2022-09-24T03:19:21;1.33;;;1.33;;
32407;SDS011;18869;55.970;37.502;2022-09-24T03:21:49;1.20;;;1.20;;
32407;SDS011;18869;55.970;37.502;2022-09-24T03:24:17;1.60;;;1.60;;
32407;SDS011;18869;55.970;37.502;2022-09-24T03:26:45;1.37;;;1.37;;
32407;SDS011;18869;55.970;37.502;2022-09-24T03:29:12;1.80;;;1.70;;
32407;SDS011;18869;55.970;37.502;2022-09-24T03:31:39;1.60;;;1.50;;
32407;SDS011;18869;55.970;37.502;2022-09-24T03:34:07;2.63;;;1.50;;
32407;SDS011;18869;55.970;37.502;2022-09-24T03:36:34;1.50;;;1.50;;
32407;SDS011;18869;55.970;37.502;2022-09-24T03:39:03;1.50;;;1.40;;
32407;SDS011;18869;55.970;37.502;2022-09-24T03:41:31;1.40;;;1.40;;
32407;SDS011;18869;55.970;37.502;2022-09-24T03:43:59;1.43;;;1.43;;
32407;SDS011;18869;55.970;37.502;2022-09-24T03:46:27;1.70;;;1.60;;
32407;SDS011;18869;55.970;37.502;2022-09-24T03:48:56;5.03;;;1.53;;
32407;SDS011;18869;55.970;37.502;2022-09-24T03:51:24;1.60;;;1.50;;
32407;SDS011;18869;55.970;37.502;2022-09-24T03:53:52;1.50;;;1.50;;
32407;SDS011;18869;55.970;37.502;2022-09-24T03:56:21;1.70;;;1.60;;
32407;SDS011;18869;55.970;37.502;2022-09-24T03:58:48;1.77;;;1.67;;
32407;SDS011;18869;55.970;37.502;2022-09-24T04:01:16;1.73;;;1.73;;
32407;SDS011;18869;55.970;37.502;2022-09-24T04:03:46;1.97;;;1.87;;
32407;SDS011;18869;55.970;37.502;2022-09-24T04:06:13;1.47;;;1.40;;
32407;SDS011;18869;55.970;37.502;2022-09-24T04:08:41;1.53;;;1.43;;
32407;SDS011;18869;55.970;37.502;2022-09-24T04:11:10;2.20;;;1.40;;
32407;SDS011;18869;55.970;37.502;2022-09-24T04:13:39;1.10;;;1.10;;
32407;SDS011;18869;55.970;37.502;2022-09-24T04:16:07;1.30;;;1.30;;
32407;SDS011;18869;55.970;37.502;2022-09-24T04:18:34;1.63;;;1.53;;
32407;SDS011;18869;55.970;37.502;2022-09-24T04:21:02;1.27;;;1.27;;
32407;SDS011;18869;55.970;37.502;2022-09-24T04:23:30;1.70;;;1.60;;
32407;SDS011;18869;55.970;37.502;2022-09-24T04:25:58;1.40;;;1.30;;
32407;SDS011;18869;55.970;37.502;2022-09-24T04:28:27;1.57;;;1.57;;
32407;SDS011;18869;55.970;37.502;2022-09-24T04:30:56;1.43;;;1.43;;
32407;SDS011;18869;55.970;37.502;2022-09-24T04:33:24;1.73;;;1.63;;
32407;SDS011;18869;55.970;37.502;2022-09-24T04:35:51;1.73;;;1.63;;
32407;SDS011;18869;55.970;37.502;2022-09-24T04:38:19;1.40;;;1.37;;
32407;SDS011;18869;55.970;37.502;2022-09-24T04:40:47;1.60;;;1.57;;
32407;SDS011;18869;55.970;37.502;2022-09-24T04:43:14;1.60;;;1.50;;
32407;SDS011;18869;55.970;37.502;2022-09-24T04:45:43;2.07;;;1.90;;
32407;SDS011;18869;55.970;37.502;2022-09-24T04:48:12;1.47;;;1.47;;
32407;SDS011;18869;55.970;37.502;2022-09-24T04:50:39;1.60;;;1.60;;
32407;SDS011;18869;55.970;37.502;2022-09-24T04:53:07;1.60;;;1.60;;
32407;SDS011;18869;55.970;37.502;2022-09-24T04:55:34;2.47;;;1.70;;
32407;SDS011;18869;55.970;37.502;2022-09-24T04:58:02;1.73;;;1.57;;
32407;SDS011;18869;55.970;37.502;2022-09-24T05:00:30;1.70;;;1.60;;
32407;SDS011;18869;55.970;37.502;2022-09-24T05:02:58;1.90;;;1.80;;
32407;SDS011;18869;55.970;37.502;2022-09-24T05:05:29;1.60;;;1.60;;
32407;SDS011;18869;55.970;37.502;2022-09-24T05:07:57;1.70;;;1.60;;
32407;SDS011;18869;55.970;37.502;2022-09-24T05:10:26;2.23;;;1.57;;
32407;SDS011;18869;55.970;37.502;2022-09-24T05:12:53;1.60;;;1.50;;
32407;SDS011;18869;55.970;37.502;2022-09-24T05:15:21;1.40;;;1.30;;
32407;SDS011;18869;55.970;37.502;2022-09-24T05:17:49;1.97;;;1.77;;
32407;SDS011;18869;55.970;37.502;2022-09-24T05:20:16;2.10;;;2.00;;
32407;SDS011;18869;55.970;37.502;2022-09-24T05:22:47;2.20;;;2.00;;
32407;SDS011;18869;55.970;37.502;2022-09-24T05:25:17;2.50;;;2.30;;
32407;SDS011;18869;55.970;37.502;2022-09-24T05:27:45;3.20;;;2.20;;
32407;SDS011;18869;55.970;37.502;2022-09-24T05:30:12;2.47;;;2.27;;
32407;SDS011;18869;55.970;37.502;2022-09-24T05:32:41;2.30;;;2.10;;
32407;SDS011;18869;55.970;37.502;2022-09-24T05:35:08;2.23;;;2.03;;
32407;SDS011;18869;55.970;37.502;2022-09-24T05:37:38;2.30;;;2.10;;
32407;SDS011;18869;55.970;37.502;2022-09-24T05:40:08;2.63;;;2.43;;
32407;SDS011;18869;55.970;37.502;2022-09-24T05:42:58;3.53;;;2.20;;
32407;SDS011;18869;55.970;37.502;2022-09-24T05:45:27;1.83;;;1.73;;
32407;SDS011;18869;55.970;37.502;2022-09-24T05:47:54;2.20;;;2.10;;
32407;SDS011;18869;55.970;37.502;2022-09-24T05:50:22;2.17;;;1.97;;
32407;SDS011;18869;55.970;37.502;2022-09-24T05:52:50;2.20;;;1.70;;
32407;SDS011;18869;55.970;37.502;2022-09-24T05:55:18;2.03;;;1.93;;
32407;SDS011;18869;55.970;37.502;2022-09-24T05:57:46;2.30;;;2.00;;
32407;SDS011;18869;55.970;37.502;2022-09-24T06:00:15;3.40;;;2.27;;
32407;SDS011;18869;55.970;37.502;2022-09-24T06:02:43;4.07;;;3.00;;
32407;SDS011;18869;55.970;37.502;2022-09-24T06:05:10;4.50;;;2.17;;
32407;SDS011;18869;55.970;37.502;2022-09-24T06:07:38;2.40;;;2.20;;
32407;SDS011;18869;55.970;37.502;2022-09-24T06:10:08;2.50;;;2.30;;
32407;SDS011;18869;55.970;37.502;2022-09-24T06:12:37;2.23;;;2.03;;
32407;SDS011;18869;55.970;37.502;2022-09-24T06:15:06;2.23;;;2.13;;
32407;SDS011;18869;55.970;37.502;2022-09-24T06:17:34;2.30;;;2.10;;
32407;SDS011;18869;55.970;37.502;2022-09-24T06:20:01;2.07;;;1.93;;
32407;SDS011;18869;55.970;37.502;2022-09-24T06:22:29;1.67;;;1.57;;
32407;SDS011;18869;55.970;37.502;2022-09-24T06:24:57;1.43;;;1.37;;
32407;SDS011;18869;55.970;37.502;2022-09-24T06:27:24;1.60;;;1.50;;
32407;SDS011;18869;55.970;37.502;2022-09-24T06:29:53;1.40;;;1.40;;
32407;SDS011;18869;55.970;37.502;2022-09-24T06:32:22;2.00;;;1.60;;
32407;SDS011;18869;55.970;37.502;2022-09-24T06:34:49;1.60;;;1.50;;
32407;SDS011;18869;55.970;37.502;2022-09-24T06:37:17;1.57;;;1.50;;
32407;SDS011;18869;55.970;37.502;2022-09-24T06:39:44;2.20;;;2.00;;
32407;SDS011;18869;55.970;37.502;2022-09-24T06:42:12;2.10;;;1.90;;
32407;SDS011;18869;55.970;37.502;2022-09-24T06:44:39;2.10;;;2.00;;
32407;SDS011;18869;55.970;37.502;2022-09-24T06:47:08;1.50;;;1.40;;
32407;SDS011;18869;55.970;37.502;2022-09-24T06:49:37;1.27;;;1.27;;
32407;SDS011;18869;55.970;37.502;2022-09-24T06:52:05;1.40;;;1.40;;
32407;SDS011;18869;55.970;37.502;2022-09-24T06:54:33;1.60;;;1.50;;
32407;SDS011;18869;55.970;37.502;2022-09-24T06:57:01;1.53;;;1.53;;
32407;SDS011;18869;55.970;37.502;2022-09-24T06:59:32;1.43;;;1.33;;
32407;SDS011;18869;55.970;37.502;2022-09-24T07:02:00;1.93;;;1.83;;
32407;SDS011;18869;55.970;37.502;2022-09-24T07:04:28;1.50;;;1.40;;
32407;SDS011;18869;55.970;37.502;2022-09-24T07:06:56;1.60;;;1.50;;
32407;SDS011;18869;55.970;37.502;2022-09-24T07:09:50;1.80;;;1.73;;
32407;SDS011;18869;55.970;37.502;2022-09-24T07:12:17;2.50;;;1.77;;
32407;SDS011;18869;55.970;37.502;2022-09-24T07:14:45;1.70;;;1.60;;
32407;SDS011;18869;55.970;37.502;2022-09-24T07:17:12;1.57;;;1.57;;
32407;SDS011;18869;55.970;37.502;2022-09-24T07:19:41;1.50;;;1.40;;
32407;SDS011;18869;55.970;37.502;2022-09-24T07:22:08;1.77;;;1.70;;
32407;SDS011;18869;55.970;37.502;2022-09-24T07:24:37;1.87;;;1.77;;
32407;SDS011;18869;55.970;37.502;2022-09-24T07:27:04;1.63;;;1.53;;
32407;SDS011;18869;55.970;37.502;2022-09-24T07:29:32;1.83;;;1.73;;
32407;SDS011;18869;55.970;37.502;2022-09-24T07:32:00;2.20;;;2.00;;
32407;SDS011;18869;55.970;37.502;2022-09-24T07:34:31;2.00;;;1.77;;
32407;SDS011;18869;55.970;37.502;2022-09-24T07:37:00;2.10;;;2.00;;
32407;SDS011;18869;55.970;37.502;2022-09-24T07:39:27;1.93;;;1.80;;
32407;SDS011;18869;55.970;37.502;2022-09-24T07:41:55;2.03;;;1.93;;
32407;SDS011;18869;55.970;37.502;2022-09-24T07:44:25;3.60;;;3.00;;
32407;SDS011;18869;55.970;37.502;2022-09-24T07:46:52;3.73;;;2.50;;
32407;SDS011;18869;55.970;37.502;2022-09-24T07:49:20;4.40;;;3.13;;
32407;SDS011;18869;55.970;37.502;2022-09-24T07:51:47;8.70;;;7.37;;
32407;SDS011;18869;55.970;37.502;2022-09-24T07:54:16;8.63;;;5.63;;
32407;SDS011;18869;55.970;37.502;2022-09-24T07:56:44;3.70;;;3.30;;
32407;SDS011;18869;55.970;37.502;2022-09-24T07:59:11;3.90;;;3.50;;
32407;SDS011;18869;55.970;37.502;2022-09-24T08:01:39;4.10;;;3.80;;
32407;SDS011;18869;55.970;37.502;2022-09-24T08:04:07;6.83;;;6.03;;
32407;SDS011;18869;55.970;37.502;2022-09-24T08:06:34;6.07;;;5.47;;
32407;SDS011;18869;55.970;37.502;2022-09-24T08:09:02;24.40;;;17.97;;
32407;SDS011;18869;55.970;37.502;2022-09-24T08:11:32;9.77;;;8.50;;
32407;SDS011;18869;55.970;37.502;2022-09-24T08:14:00;3.97;;;3.60;;
32407;SDS011;18869;55.970;37.502;2022-09-24T08:16:27;3.47;;;2.90;;
32407;SDS011;18869;55.970;37.502;2022-09-24T08:18:55;3.67;;;3.27;;
32407;SDS011;18869;55.970;37.502;2022-09-24T08:21:23;4.07;;;3.50;;
32407;SDS011;18869;55.970;37.502;2022-09-24T08:23:54;3.93;;;3.63;;
32407;SDS011;18869;55.970;37.502;2022-09-24T08:26:24;4.67;;;4.00;;
32407;SDS011;18869;55.970;37.502;2022-09-24T08:28:53;3.47;;;3.17;;
32407;SDS011;18869;55.970;37.502;2022-09-24T08:31:20;3.13;;;2.83;;
32407;SDS011;18869;55.970;37.502;2022-09-24T08:33:48;2.37;;;2.27;;
32407;SDS011;18869;55.970;37.502;2022-09-24T08:36:16;2.37;;;2.17;;
32407;SDS011;18869;55.970;37.502;2022-09-24T08:38:44;3.60;;;3.10;;
32407;SDS011;18869;55.970;37.502;2022-09-24T08:41:20;4.37;;;3.93;;
32407;SDS011;18869;55.970;37.502;2022-09-24T08:44:01;2.63;;;2.43;;
32407;SDS011;18869;55.970;37.502;2022-09-24T08:46:31;2.27;;;2.17;;
32407;SDS011;18869;55.970;37.502;2022-09-24T08:49:18;2.40;;;2.20;;
32407;SDS011;18869;55.970;37.502;2022-09-24T08:52:03;1.97;;;1.87;;
32407;SDS011;18869;55.970;37.502;2022-09-24T08:54:35;1.97;;;1.87;;
32407;SDS011;18869;55.970;37.502;2022-09-24T08:57:04;8.83;;;6.50;;
32407;SDS011;18869;55.970;37.502;2022-09-24T08:59:40;4.67;;;4.03;;
32407;SDS011;18869;55.970;37.502;2022-09-24T09:02:12;3.37;;;2.53;;
32407;SDS011;18869;55.970;37.502;2022-09-24T09:04:55;2.10;;;1.70;;
32407;SDS011;18869;55.970;37.502;2022-09-24T09:07:30;2.43;;;1.73;;
32407;SDS011;18869;55.970;37.502;2022-09-24T09:09:59;2.43;;;2.00;;
32407;SDS011;18869;55.970;37.502;2022-09-24T09:12:31;2.03;;;1.93;;
32407;SDS011;18869;55.970;37.502;2022-09-24T09:15:03;2.13;;;2.03;;
32407;SDS011;18869;55.970;37.502;2022-09-24T09:17:38;2.60;;;2.40;;
32407;SDS011;18869;55.970;37.502;2022-09-24T09:20:11;2.10;;;2.00;;
32407;SDS011;18869;55.970;37.502;2022-09-24T09:22:44;2.13;;;2.03;;
32407;SDS011;18869;55.970;37.502;2022-09-24T09:25:18;2.60;;;2.40;;
32407;SDS011;18869;55.970;37.502;2022-09-24T09:27:51;2.03;;;1.83;;
32407;SDS011;18869;55.970;37.502;2022-09-24T09:30:25;1.70;;;1.70;;
32407;SDS011;18869;55.970;37.502;2022-09-24T09:33:06;1.83;;;1.73;;
32407;SDS011;18869;55.970;37.502;2022-09-24T09:35:40;1.90;;;1.80;;
32407;SDS011;18869;55.970;37.502;2022-09-24T09:38:14;1.90;;;1.80;;
32407;SDS011;18869;55.970;37.502;2022-09-24T09:40:51;2.30;;;1.93;;
32407;SDS011;18869;55.970;37.502;2022-09-24T09:43:23;1.90;;;1.80;;
32407;SDS011;18869;55.970;37.502;2022-09-24T09:45:56;1.87;;;1.77;;
32407;SDS011;18869;55.970;37.502;2022-09-24T09:48:28;2.07;;;1.97;;
32407;SDS011;18869;55.970;37.502;2022-09-24T09:51:03;1.80;;;1.70;;
32407;SDS011;18869;55.970;37.502;2022-09-24T09:53:31;1.80;;;1.70;;
32407;SDS011;18869;55.970;37.502;2022-09-24T09:55:59;1.57;;;1.50;;
32407;SDS011;18869;55.970;37.502;2022-09-24T09:58:29;2.27;;;2.07;;
32407;SDS011;18869;55.970;37.502;2022-09-24T10:01:09;1.80;;;1.70;;
32407;SDS011;18869;55.970;37.502;2022-09-24T10:03:47;2.27;;;1.90;;
32407;SDS011;18869;55.970;37.502;2022-09-24T10:06:21;1.60;;;1.50;;
32407;SDS011;18869;55.970;37.502;2022-09-24T10:08:50;3.20;;;2.20;;
32407;SDS011;18869;55.970;37.502;2022-09-24T10:11:17;4.10;;;2.23;;
32407;SDS011;18869;55.970;37.502;2022-09-24T10:13:45;1.97;;;1.87;;
32407;SDS011;18869;55.970;37.502;2022-09-24T10:16:14;2.50;;;2.30;;
32407;SDS011;18869;55.970;37.502;2022-09-24T10:18:42;2.00;;;1.90;;
32407;SDS011;18869;55.970;37.502;2022-09-24T10:21:12;1.90;;;1.80;;
32407;SDS011;18869;55.970;37.502;2022-09-24T10:23:43;1.93;;;1.83;;
32407;SDS011;18869;55.970;37.502;2022-09-24T10:26:13;1.90;;;1.80;;
32407;SDS011;18869;55.970;37.502;2022-09-24T10:28:40;2.00;;;1.90;;
32407;SDS011;18869;55.970;37.502;2022-09-24T10:31:31;1.73;;;1.63;;
32407;SDS011;18869;55.970;37.502;2022-09-24T10:34:03;2.23;;;2.03;;
32407;SDS011;18869;55.970;37.502;2022-09-24T10:36:48;4.40;;;2.20;;
32407;SDS011;18869;55.970;37.502;2022-09-24T10:39:17;2.10;;;2.00;;
32407;SDS011;18869;55.970;37.502;2022-09-24T10:41:45;1.80;;;1.70;;
32407;SDS011;18869;55.970;37.502;2022-09-24T10:44:13;2.10;;;2.00;;
32407;SDS011;18869;55.970;37.502;2022-09-24T10:46:49;2.13;;;1.93;;
32407;SDS011;18869;55.970;37.502;2022-09-24T10:49:25;2.20;;;2.10;;
32407;SDS011;18869;55.970;37.502;2022-09-24T10:52:02;1.97;;;1.87;;
32407;SDS011;18869;55.970;37.502;2022-09-24T10:54:41;2.00;;;1.90;;
32407;SDS011;18869;55.970;37.502;2022-09-24T10:57:16;2.43;;;2.00;;
32407;SDS011;18869;55.970;37.502;2022-09-24T10:59:52;1.60;;;1.50;;
32407;SDS011;18869;55.970;37.502;2022-09-24T11:02:29;1.77;;;1.67;;
32407;SDS011;18869;55.970;37.502;2022-09-24T11:05:08;1.53;;;1.50;;
32407;SDS011;18869;55.970;37.502;2022-09-24T11:07:43;2.00;;;1.90;;
32407;SDS011;18869;55.970;37.502;2022-09-24T11:10:32;1.87;;;1.77;;
32407;SDS011;18869;55.970;37.502;2022-09-24T11:13:12;1.90;;;1.80;;
32407;SDS011;18869;55.970;37.502;2022-09-24T11:15:50;2.40;;;2.07;;
32407;SDS011;18869;55.970;37.502;2022-09-24T11:18:28;2.03;;;1.93;;
32407;SDS011;18869;55.970;37.502;2022-09-24T11:21:03;1.47;;;1.37;;
32407;SDS011;18869;55.970;37.502;2022-09-24T11:23:46;2.17;;;2.00;;
32407;SDS011;18869;55.970;37.502;2022-09-24T11:26:44;2.20;;;2.00;;
32407;SDS011;18869;55.970;37.502;2022-09-24T11:29:22;1.87;;;1.70;;
32407;SDS011;18869;55.970;37.502;2022-09-24T11:31:57;1.80;;;1.67;;
32407;SDS011;18869;55.970;37.502;2022-09-24T11:34:40;1.70;;;1.60;;
32407;SDS011;18869;55.970;37.502;2022-09-24T11:37:18;2.10;;;2.00;;
32407;SDS011;18869;55.970;37.502;2022-09-24T11:39:57;2.70;;;1.90;;
32407;SDS011;18869;55.970;37.502;2022-09-24T11:42:40;1.90;;;1.70;;
32407;SDS011;18869;55.970;37.502;2022-09-24T11:45:19;2.10;;;1.90;;
32407;SDS011;18869;55.970;37.502;2022-09-24T11:47:58;1.97;;;1.80;;
32407;SDS011;18869;55.970;37.502;2022-09-24T11:50:38;1.93;;;1.83;;
32407;SDS011;18869;55.970;37.502;2022-09-24T11:53:16;2.40;;;2.20;;
32407;SDS011;18869;55.970;37.502;2022-09-24T11:55:51;1.80;;;1.70;;
32407;SDS011;18869;55.970;37.502;2022-09-24T11:58:24;2.10;;;2.00;;
32407;SDS011;18869;55.970;37.502;2022-09-24T12:00:53;2.10;;;1.90;;
32407;SDS011;18869;55.970;37.502;2022-09-24T12:03:34;1.90;;;1.80;;
32407;SDS011;18869;55.970;37.502;2022-09-24T12:06:06;2.10;;;1.50;;
32407;SDS011;18869;55.970;37.502;2022-09-24T12:08:38;2.23;;;1.90;;
32407;SDS011;18869;55.970;37.502;2022-09-24T12:11:12;1.70;;;1.60;;
32407;SDS011;18869;55.970;37.502;2022-09-24T12:13:46;2.00;;;1.90;;
32407;SDS011;18869;55.970;37.502;2022-09-24T12:16:17;1.67;;;1.57;;
32407;SDS011;18869;55.970;37.502;2022-09-24T12:18:48;1.80;;;1.70;;
32407;SDS011;18869;55.970;37.502;2022-09-24T12:21:24;1.87;;;1.77;;
32407;SDS011;18869;55.970;37.502;2022-09-24T12:23:56;2.17;;;1.97;;
32407;SDS011;18869;55.970;37.502;2022-09-24T12:26:26;1.90;;;1.80;;
32407;SDS011;18869;55.970;37.502;2022-09-24T12:28:57;2.00;;;1.90;;
32407;SDS011;18869;55.970;37.502;2022-09-24T12:31:48;2.00;;;1.70;;
32407;SDS011;18869;55.970;37.502;2022-09-24T12:34:40;1.80;;;1.70;;
32407;SDS011;18869;55.970;37.502;2022-09-24T12:37:17;1.60;;;1.50;;
32407;SDS011;18869;55.970;37.502;2022-09-24T12:39:49;2.20;;;2.10;;
32407;SDS011;18869;55.970;37.502;2022-09-24T12:42:20;1.87;;;1.77;;
32407;SDS011;18869;55.970;37.502;2022-09-24T12:44:52;5.40;;;1.67;;
32407;SDS011;18869;55.970;37.502;2022-09-24T12:47:21;1.20;;;1.20;;
32407;SDS011;18869;55.970;37.502;2022-09-24T12:49:51;1.63;;;1.53;;
32407;SDS011;18869;55.970;37.502;2022-09-24T12:52:24;1.50;;;1.40;;
32407;SDS011;18869;55.970;37.502;2022-09-24T12:54:53;1.57;;;1.47;;
32407;SDS011;18869;55.970;37.502;2022-09-24T12:57:27;1.67;;;1.23;;
32407;SDS011;18869;55.970;37.502;2022-09-24T12:59:57;2.03;;;1.90;;
32407;SDS011;18869;55.970;37.502;2022-09-24T13:02:30;2.43;;;1.90;;
32407;SDS011;18869;55.970;37.502;2022-09-24T13:05:14;2.87;;;1.57;;
32407;SDS011;18869;55.970;37.502;2022-09-24T13:07:55;1.60;;;1.50;;
32407;SDS011;18869;55.970;37.502;2022-09-24T13:10:27;1.73;;;1.63;;
32407;SDS011;18869;55.970;37.502;2022-09-24T13:12:55;1.80;;;1.70;;
32407;SDS011;18869;55.970;37.502;2022-09-24T13:15:26;1.43;;;1.33;;
32407;SDS011;18869;55.970;37.502;2022-09-24T13:18:04;1.70;;;1.60;;
32407;SDS011;18869;55.970;37.502;2022-09-24T13:20:43;1.47;;;1.30;;
32407;SDS011;18869;55.970;37.502;2022-09-24T13:23:28;1.83;;;1.50;;
32407;SDS011;18869;55.970;37.502;2022-09-24T13:25:57;1.70;;;1.60;;
32407;SDS011;18869;55.970;37.502;2022-09-24T13:28:30;2.03;;;1.50;;
32407;SDS011;18869;55.970;37.502;2022-09-24T13:31:02;1.80;;;1.70;;
32407;SDS011;18869;55.970;37.502;2022-09-24T13:33:39;1.57;;;1.47;;
32407;SDS011;18869;55.970;37.502;2022-09-24T13:36:10;1.50;;;1.40;;
32407;SDS011;18869;55.970;37.502;2022-09-24T13:38:43;1.97;;;1.87;;
32407;SDS011;18869;55.970;37.502;2022-09-24T13:41:20;3.63;;;1.90;;
32407;SDS011;18869;55.970;37.502;2022-09-24T13:43:54;1.97;;;1.87;;
32407;SDS011;18869;55.970;37.502;2022-09-24T13:46:26;3.70;;;1.80;;
32407;SDS011;18869;55.970;37.502;2022-09-24T13:48:56;2.57;;;1.80;;
32407;SDS011;18869;55.970;37.502;2022-09-24T13:51:28;3.00;;;2.00;;
32407;SDS011;18869;55.970;37.502;2022-09-24T13:54:02;3.63;;;1.90;;
32407;SDS011;18869;55.970;37.502;2022-09-24T13:56:32;2.57;;;2.30;;
32407;SDS011;18869;55.970;37.502;2022-09-24T13:59:03;2.10;;;2.00;;
32407;SDS011;18869;55.970;37.502;2022-09-24T14:01:35;1.93;;;1.83;;
32407;SDS011;18869;55.970;37.502;2022-09-24T14:04:14;2.10;;;1.90;;
32407;SDS011;18869;55.970;37.502;2022-09-24T14:06:44;1.77;;;1.67;;
32407;SDS011;18869;55.970;37.502;2022-09-24T14:09:21;2.80;;;2.20;;
32407;SDS011;18869;55.970;37.502;2022-09-24T14:11:52;3.07;;;2.57;;
32407;SDS011;18869;55.970;37.502;2022-09-24T14:14:22;3.33;;;2.57;;
32407;SDS011;18869;55.970;37.502;2022-09-24T14:16:51;3.17;;;2.67;;
32407;SDS011;18869;55.970;37.502;2022-09-24T14:19:19;6.13;;;3.23;;
32407;SDS011;18869;55.970;37.502;2022-09-24T14:21:49;3.67;;;3.33;;
32407;SDS011;18869;55.970;37.502;2022-09-24T14:24:22;3.60;;;3.30;;
32407;SDS011;18869;55.970;37.502;2022-09-24T14:26:56;3.47;;;3.17;;
32407;SDS011;18869;55.970;37.502;2022-09-24T14:29:26;3.83;;;3.43;;
32407;SDS011;18869;55.970;37.502;2022-09-24T14:32:05;4.07;;;2.60;;
32407;SDS011;18869;55.970;37.502;2022-09-24T14:34:44;3.57;;;2.50;;
32407;SDS011;18869;55.970;37.502;2022-09-24T14:37:14;2.97;;;2.77;;
32407;SDS011;18869;55.970;37.502;2022-09-24T14:39:47;3.60;;;2.17;;
32407;SDS011;18869;55.970;37.502;2022-09-24T14:42:25;2.20;;;2.10;;
32407;SDS011;18869;55.970;37.502;2022-09-24T14:44:55;2.40;;;2.20;;
32407;SDS011;18869;55.970;37.502;2022-09-24T14:47:24;2.77;;;2.57;;
32407;SDS011;18869;55.970;37.502;2022-09-24T14:49:53;2.97;;;2.70;;
32407;SDS011;18869;55.970;37.502;2022-09-24T14:52:25;2.80;;;2.37;;
32407;SDS011;18869;55.970;37.502;2022-09-24T14:55:09;3.07;;;2.10;;
32407;SDS011;18869;55.970;37.502;2022-09-24T14:57:40;2.70;;;2.50;;